AGROMETEOROLOŠKI PORTAL

vinorodna pokrajina

Temelj dobrega kmetovanja

Pregled podatkov za lokacijo Zimica, meteorološka postaja 27472

Pregled senzorjev na lokaciji

ID Ime Zadnja
vrednost
Datum in čas
meritve
(lokalni čas)
Tip
senzorja
4317 Omočenost lista (1,5 m) (U) 0 U 4.10.2022 16:30 A730WET
1715 Padavine (mm) 0 mm 4.10.2022 16:30 Generic 0.2 mm
1714 Relativna zračna vlaga (2 m) (%RH) 44 %RH 4.10.2022 16:30 Generic 0 - 100 %
1713 Temperatura (2 m) (°C) 18,9 °C 4.10.2022 16:30 Generic -40 - +60 °C

Pregled podatkov zadnjih 24 ur

Zap.
št.
Datum in čas
(lokalni čas)
Zimica
Omočenost
lista
(1,5
m)
Padavine Relativna
zračna
vlaga
(2
m)
Temperatura
(2
m)
1 4.10.2022 16:30 0 0 44,3 18,9
2 4.10.2022 16:00 0 0 43 19,1
3 4.10.2022 15:30 0 0 43,2 19,2
4 4.10.2022 15:00 0 0 42,9 19,5
5 4.10.2022 14:30 0 0 41,6 19,1
6 4.10.2022 14:00 0 0 44,9 18,9
7 4.10.2022 13:30 0 0 43,9 18,5
8 4.10.2022 13:00 0 0 43,4 18,2
9 4.10.2022 12:30 0 0 46,5 17,6
10 4.10.2022 12:00 0 0 53,9 16,6
11 4.10.2022 11:30 0 0 59,7 15,9
12 4.10.2022 11:00 0 0 63,4 14,9
13 4.10.2022 10:30 0 0 67,6 13,7
14 4.10.2022 10:00 0 0 73 12
15 4.10.2022 09:30 2 0 79,8 10,2
16 4.10.2022 09:00 4 0 81,1 9,3
17 4.10.2022 08:30 9 0 80,6 8,9
18 4.10.2022 08:00 10 0 83,7 8
19 4.10.2022 07:30 10 0 89,3 6,8
20 4.10.2022 07:00 10 0 92,4 5,8
21 4.10.2022 06:30 10 0 92,4 6
22 4.10.2022 06:00 10 0 95,1 5,8
23 4.10.2022 05:30 10 0 96,5 5,4
24 4.10.2022 05:00 10 0 96,3 5,5
25 4.10.2022 04:30 10 0 95,8 5,7
26 4.10.2022 04:00 10 0 94,3 5,8
27 4.10.2022 03:30 10 0 94,1 6,2
28 4.10.2022 03:00 10 0 92,9 6,3
29 4.10.2022 02:30 10 0 91,6 6,7
30 4.10.2022 02:00 10 0 88,5 7,3
31 4.10.2022 01:30 10 0 87,6 7,7
32 4.10.2022 01:00 10 0 89,8 7,4
33 4.10.2022 00:30 10 0 83,7 8,4
34 4.10.2022 00:00 10 0 81,1 9,1
35 3.10.2022 23:30 10 0 78,8 9,8
36 3.10.2022 23:00 10 0 81,2 9,7
37 3.10.2022 22:30 10 0 80,2 9,9
38 3.10.2022 22:00 10 0 81,1 10,2
39 3.10.2022 21:30 10 0 85,4 9,4
40 3.10.2022 21:00 10 0 78,4 10,4
41 3.10.2022 20:30 7 0 76,4 10,4
42 3.10.2022 20:00 1 0 71,1 11,5
43 3.10.2022 19:30 0 0 65,3 12,6
44 3.10.2022 19:00 0 0 55,7 14
45 3.10.2022 18:30 0 0 52,8 15,6
46 3.10.2022 18:00 0 0 47,1 17,8